Time;durP1;ratioP1;P1;durP2;ratioP2;P2;SDS_P1;SDS_P2;PMS_P1;PMS_P2;Temp;Humidity;BMP_temperature;BMP_pressure;BME280_temperature;BME280_humidity;BME280_pressure;Samples;Min_cycle;Max_cycle;Signal;HPM_P1;HPM_P2
2022/08/27 00:01:08;;;;;;;22.63;6.70;;;;;;;24.26;62.24;99224.53;5062240;28;20087;-70
2022/08/27 00:03:35;;;;;;;27.55;7.47;;;;;;;24.33;61.97;99221.63;5061471;28;20100;-69
2022/08/27 00:06:01;;;;;;;28.77;7.35;;;;;;;24.43;61.47;99213.56;5061920;28;20047;-69
2022/08/27 00:08:27;;;;;;;21.90;7.28;;;;;;;24.51;60.84;99226.56;5062160;28;20044;-69
2022/08/27 00:10:52;;;;;;;24.05;6.57;;;;;;;24.45;60.73;99228.44;5061387;28;20142;-70
2022/08/27 00:13:18;;;;;;;28.05;6.82;;;;;;;24.27;61.27;99211.88;5061497;28;20259;-70
2022/08/27 00:15:43;;;;;;;22.85;7.35;;;;;;;24.28;61.50;99219.72;5061929;28;20043;-70
2022/08/27 00:18:09;;;;;;;30.65;7.63;;;;;;;24.20;61.82;99223.72;5061085;28;20261;-70
2022/08/27 00:20:34;;;;;;;18.98;6.75;;;;;;;24.16;61.77;99230.72;5061782;28;20083;-70
2022/08/27 00:23:00;;;;;;;33.17;7.90;;;;;;;24.17;61.69;99232.34;5060968;28;20044;-70
2022/08/27 00:25:25;;;;;;;23.92;7.53;;;;;;;24.12;62.33;99231.50;5061630;28;20231;-70
2022/08/27 00:27:51;;;;;;;23.08;7.15;;;;;;;24.11;62.45;99230.69;5061718;28;20037;-69
2022/08/27 00:30:20;;;;;;;21.60;6.90;;;;;;;24.15;62.57;99231.81;5060354;28;20041;-70
2022/08/27 00:32:46;;;;;;;23.48;6.65;;;;;;;24.15;63.50;99242.63;5061300;28;20024;-69
2022/08/27 00:35:14;;;;;;;20.70;6.80;;;;;;;24.11;63.60;99241.50;5061886;28;20327;-70
2022/08/27 00:37:41;;;;;;;21.25;7.20;;;;;;;24.14;63.96;99251.00;5060312;28;20037;-69
2022/08/27 00:40:10;;;;;;;23.60;6.15;;;;;;;24.08;64.08;99239.34;5061183;28;20325;-69
2022/08/27 00:42:36;;;;;;;22.05;7.32;;;;;;;24.09;64.59;99246.38;5061163;28;20052;-70
2022/08/27 00:45:03;;;;;;;14.95;6.82;;;;;;;24.12;64.19;99232.31;5061033;28;20130;-69
2022/08/27 00:47:33;;;;;;;33.60;7.53;;;;;;;24.14;64.30;99237.47;5060813;28;20028;-70
2022/08/27 00:50:04;;;;;;;18.13;7.60;;;;;;;24.06;64.33;99232.56;5061001;28;20059;-70
2022/08/27 00:52:44;;;;;;;19.35;6.13;;;;;;;24.13;64.55;99244.78;5061319;28;20100;-69
2022/08/27 00:55:23;;;;;;;23.10;7.88;;;;;;;24.11;64.76;99244.22;5061260;28;20032;-70
2022/08/27 00:58:08;;;;;;;21.95;6.97;;;;;;;24.15;64.56;99242.63;5061138;28;20029;-70
2022/08/27 01:00:35;;;;;;;21.50;7.15;;;;;;;24.06;64.71;99237.97;5052473;28;20041;-69
2022/08/27 01:03:00;;;;;;;19.00;7.45;;;;;;;24.01;64.30;99235.25;5060431;28;20417;-69
2022/08/27 01:05:26;;;;;;;19.73;7.22;;;;;;;23.79;64.45;99238.88;5061634;28;20066;-70
2022/08/27 01:07:56;;;;;;;16.15;6.95;;;;;;;23.76;64.41;99233.97;5061018;28;20078;-69
2022/08/27 01:10:25;;;;;;;21.55;7.72;;;;;;;23.67;64.02;99234.72;5059868;28;20079;-69
2022/08/27 01:12:53;;;;;;;16.77;6.63;;;;;;;23.37;64.22;99238.78;5060776;28;20044;-69
2022/08/27 01:15:19;;;;;;;20.05;7.68;;;;;;;23.55;62.93;99229.50;5058628;28;20036;-69
2022/08/27 01:17:46;;;;;;;16.92;7.35;;;;;;;23.52;62.21;99230.81;5060401;28;20055;-69
2022/08/27 01:20:42;;;;;;;22.10;6.80;;;;;;;23.36;62.43;99218.25;5059699;28;20075;-69
2022/08/27 01:23:22;;;;;;;22.92;7.07;;;;;;;23.48;62.00;99234.28;5049399;28;20045;-70
2022/08/27 01:25:48;;;;;;;24.27;7.28;;;;;;;23.39;62.18;99233.94;5060553;28;20033;-70
2022/08/27 01:28:15;;;;;;;22.25;6.70;;;;;;;23.58;61.43;99231.69;5060731;28;20147;-69
2022/08/27 01:30:41;;;;;;;33.97;7.53;;;;;;;23.52;61.74;99233.50;5060777;28;20356;-69
2022/08/27 01:33:09;;;;;;;26.67;6.82;;;;;;;23.51;61.55;99228.38;5060387;28;20033;-69
2022/08/27 01:35:34;;;;;;;20.50;6.50;;;;;;;23.45;62.05;99235.63;5063569;28;20021;-69
2022/08/27 01:38:01;;;;;;;22.20;6.93;;;;;;;23.49;62.13;99242.13;5064790;28;20054;-69
2022/08/27 01:40:27;;;;;;;22.75;6.90;;;;;;;23.34;62.49;99238.50;5064770;28;20330;-70
2022/08/27 01:42:54;;;;;;;20.50;6.68;;;;;;;23.53;62.15;99245.94;5064573;28;20036;-70
2022/08/27 01:45:29;;;;;;;19.15;6.85;;;;;;;23.33;63.00;99245.78;5064446;28;20071;-70
2022/08/27 01:47:56;;;;;;;17.13;6.43;;;;;;;23.14;63.71;99239.13;5063458;28;20110;-70
2022/08/27 01:50:30;;;;;;;20.58;6.93;;;;;;;23.21;63.93;99247.84;5064875;28;20043;-70
2022/08/27 01:53:00;;;;;;;26.40;6.82;;;;;;;23.09;64.23;99236.38;5064528;28;20092;-69
2022/08/27 01:55:26;;;;;;;22.25;7.07;;;;;;;23.00;64.86;99246.84;5045141;28;20033;-69
2022/08/27 01:57:53;;;;;;;19.65;6.68;;;;;;;23.07;64.90;99243.94;5064417;28;20246;-70
2022/08/27 02:00:26;;;;;;;17.23;6.70;;;;;;;22.76;65.58;99238.16;5064481;28;20033;-69
2022/08/27 02:02:51;;;;;;;15.93;7.20;;;;;;;22.88;65.84;99254.22;5063795;28;20238;-70
2022/08/27 02:05:18;;;;;;;14.70;6.53;;;;;;;22.95;65.49;99246.78;5064525;28;20028;-70
2022/08/27 02:07:44;;;;;;;21.20;7.03;;;;;;;22.79;66.14;99237.66;5063377;28;20448;-69
2022/08/27 02:10:12;;;;;;;17.13;6.38;;;;;;;22.79;65.91;99236.84;5064158;28;20052;-69
2022/08/27 02:12:38;;;;;;;20.85;6.53;;;;;;;22.85;65.15;99239.34;5055644;28;20048;-69
2022/08/27 02:15:04;;;;;;;21.70;7.28;;;;;;;22.53;66.06;99235.72;5058441;28;20016;-70
2022/08/27 02:17:30;;;;;;;26.77;6.88;;;;;;;22.43;66.07;99233.72;5055038;28;20048;-70
2022/08/27 02:19:55;;;;;;;19.30;6.90;;;;;;;22.31;66.68;99235.75;5056073;28;20118;-70
2022/08/27 02:22:21;;;;;;;20.77;6.30;;;;;;;22.11;67.23;99230.09;5057525;28;20044;-70
2022/08/27 02:24:47;;;;;;;19.23;6.43;;;;;;;22.27;66.45;99235.44;5059459;28;20087;-69
2022/08/27 02:27:12;;;;;;;24.75;6.43;;;;;;;22.13;66.71;99233.34;5059952;28;20056;-69
2022/08/27 02:29:38;;;;;;;12.10;6.50;;;;;;;22.05;66.69;99234.59;5055936;28;20051;-69
2022/08/27 02:32:04;;;;;;;17.90;7.22;;;;;;;22.03;66.57;99234.03;5056196;28;20318;-69
2022/08/27 02:34:29;;;;;;;18.95;6.45;;;;;;;21.83;67.56;99229.09;5057966;28;20307;-70
2022/08/27 02:36:55;;;;;;;16.65;6.60;;;;;;;22.21;66.72;99241.81;5055879;28;20051;-70
2022/08/27 02:39:21;;;;;;;20.85;6.20;;;;;;;22.55;65.12;99247.91;5055787;28;20044;-69
2022/08/27 02:41:47;;;;;;;21.75;6.15;;;;;;;22.72;64.42;99245.13;5056904;28;20029;-69
2022/08/27 02:44:13;;;;;;;18.23;6.13;;;;;;;22.87;63.59;99242.63;5057666;28;20338;-69
2022/08/27 02:46:38;;;;;;;22.13;7.18;;;;;;;22.92;62.90;99233.78;5058106;28;20044;-69
2022/08/27 02:49:05;;;;;;;20.88;6.07;;;;;;;22.86;63.41;99243.69;5054679;28;20064;-69
2022/08/27 02:51:30;;;;;;;20.05;6.32;;;;;;;22.96;63.23;99236.78;5055957;28;20029;-69
2022/08/27 02:53:56;;;;;;;17.77;6.18;;;;;;;22.92;63.34;99240.00;5040946;28;20040;-69
2022/08/27 02:56:21;;;;;;;14.20;6.38;;;;;;;22.77;64.21;99239.78;5059182;28;20075;-69
2022/08/27 02:58:47;;;;;;;21.13;6.07;;;;;;;22.54;65.46;99232.78;5057806;28;20230;-69
2022/08/27 03:01:14;;;;;;;23.92;5.70;;;;;;;22.63;65.33;99230.44;5057295;28;20036;-70
2022/08/27 03:03:40;;;;;;;18.17;5.82;;;;;;;22.64;65.26;99226.69;5055871;28;20032;-69
2022/08/27 03:06:06;;;;;;;24.45;7.00;;;;;;;22.73;64.84;99233.25;5057446;28;20021;-69
2022/08/27 03:08:31;;;;;;;15.48;5.75;;;;;;;22.70;65.11;99225.66;5054934;28;20076;-69
2022/08/27 03:10:57;;;;;;;16.50;6.85;;;;;;;22.71;64.73;99227.31;5053631;28;20078;-69
2022/08/27 03:13:24;;;;;;;16.33;6.55;;;;;;;22.73;65.11;99237.84;5057443;28;20044;-69
2022/08/27 03:15:51;;;;;;;21.83;6.30;;;;;;;22.69;65.02;99231.31;5057825;28;20041;-69
2022/08/27 03:18:20;;;;;;;14.05;6.10;;;;;;;;;;5055954;28;20079;-69
2022/08/27 03:20:51;;;;;;;23.40;6.70;;;;;;;22.66;64.98;99243.44;5057166;28;20348;-69
2022/08/27 03:23:21;;;;;;;14.82;6.22;;;;;;;22.64;65.12;99232.09;5038569;28;20039;-69
2022/08/27 03:25:55;;;;;;;14.10;6.10;;;;;;;22.56;65.70;99237.94;5056119;28;20300;-69
2022/08/27 03:28:24;;;;;;;18.70;6.28;;;;;;;22.52;65.88;99248.41;5054239;28;20041;-69
2022/08/27 03:30:53;;;;;;;16.45;6.00;;;;;;;22.49;66.11;99243.50;5054608;28;20234;-69
2022/08/27 03:33:21;;;;;;;17.33;5.78;;;;;;;22.27;66.26;99215.72;5057269;28;20321;-69
2022/08/27 03:35:47;;;;;;;19.85;6.15;;;;;;;22.49;66.34;99257.00;5056480;28;20036;-69
2022/08/27 03:38:13;;;;;;;21.08;6.07;;;;;;;22.50;66.57;99249.72;5055872;28;20033;-69
2022/08/27 03:40:39;;;;;;;19.92;6.55;;;;;;;22.51;66.80;99244.09;5056272;28;20592;-69
2022/08/27 03:43:05;;;;;;;17.35;7.18;;;;;;;22.47;66.90;99244.84;5055460;28;20032;-69
2022/08/27 03:45:30;;;;;;;24.70;6.88;;;;;;;22.46;66.67;99252.13;5055761;28;20036;-69
2022/08/27 03:47:56;;;;;;;21.38;6.80;;;;;;;22.30;67.53;99248.41;5055264;28;20634;-69
2022/08/27 03:50:21;;;;;;;24.77;6.65;;;;;;;22.11;67.85;99252.47;5054568;28;20032;-70
2022/08/27 03:52:47;;;;;;;26.00;7.45;;;;;;;21.90;68.65;99258.59;5057220;28;20036;-69
2022/08/27 03:55:13;;;;;;;22.02;7.68;;;;;;;21.96;68.02;99253.03;5055022;28;20226;-69
2022/08/27 03:57:39;;;;;;;23.42;6.90;;;;;;;22.19;67.71;99260.13;5056857;28;20071;-69
2022/08/27 04:00:14;;;;;;;24.73;7.00;;;;;;;22.27;67.57;99270.50;5040630;28;20326;-69
2022/08/27 04:02:41;;;;;;;18.33;7.07;;;;;;;22.18;68.13;99265.78;5053562;28;20036;-69
2022/08/27 04:05:10;;;;;;;19.67;6.68;;;;;;;22.07;68.71;99277.47;5053760;28;20028;-69
2022/08/27 04:07:36;;;;;;;14.30;6.45;;;;;;;22.14;69.22;99275.44;5054124;28;20045;-69
2022/08/27 04:10:01;;;;;;;22.05;7.32;;;;;;;22.24;68.49;99275.56;5054451;28;20111;-69
2022/08/27 04:12:27;;;;;;;22.85;6.35;;;;;;;22.29;68.55;99279.16;5053488;28;20037;-69
2022/08/27 04:14:52;;;;;;;18.75;6.82;;;;;;;22.33;67.59;99271.38;5057227;28;20037;-69
2022/08/27 04:17:18;;;;;;;13.75;6.53;;;;;;;22.37;68.69;99275.19;5056191;28;20368;-69
2022/08/27 04:19:43;;;;;;;15.27;6.10;;;;;;;22.33;68.95;99274.06;5051767;28;20380;-69
2022/08/27 04:22:09;;;;;;;23.13;6.97;;;;;;;22.21;69.04;99282.28;5055104;28;20017;-69
2022/08/27 04:24:36;;;;;;;21.05;7.35;;;;;;;22.18;68.65;99282.78;5055547;28;20040;-70
2022/08/27 04:27:04;;;;;;;19.63;6.90;;;;;;;22.11;69.20;99274.03;5056889;28;20029;-70
2022/08/27 04:29:30;;;;;;;11.48;6.25;;;;;;;22.09;70.36;99272.66;5054658;28;20322;-69
2022/08/27 04:31:56;;;;;;;19.65;7.78;;;;;;;22.22;70.04;99285.78;5056121;28;20020;-69
2022/08/27 04:34:22;;;;;;;21.98;8.90;;;;;;;22.19;69.91;99280.88;5054803;28;20064;-69
2022/08/27 04:36:49;;;;;;;50.53;29.52;;;;;;;22.16;68.28;99286.78;5053162;28;20048;-69
2022/08/27 04:39:14;;;;;;;26.55;9.88;;;;;;;22.29;67.00;99281.84;5055998;28;20314;-70
2022/08/27 04:41:40;;;;;;;16.90;6.75;;;;;;;22.32;66.80;99290.50;5054341;28;20039;-69
2022/08/27 04:44:08;;;;;;;15.43;6.50;;;;;;;22.48;66.37;99290.44;5055960;28;20068;-69
2022/08/27 04:46:37;;;;;;;18.27;6.57;;;;;;;22.56;66.16;99291.88;5055165;28;20025;-69
2022/08/27 04:49:06;;;;;;;26.25;6.80;;;;;;;22.59;65.47;99289.50;5054784;28;20204;-69
2022/08/27 04:51:32;;;;;;;15.07;6.20;;;;;;;22.56;65.31;99281.91;5056582;28;20058;-69
2022/08/27 04:54:01;;;;;;;15.90;5.78;;;;;;;22.61;65.05;99294.66;5052954;28;20070;-69
2022/08/27 04:56:27;;;;;;;23.90;6.88;;;;;;;22.63;64.85;99297.91;5054861;28;20037;-70
2022/08/27 04:58:53;;;;;;;20.73;6.72;;;;;;;22.76;64.39;99294.03;5056154;28;20033;-70
2022/08/27 05:01:29;;;;;;;24.25;7.40;;;;;;;22.70;64.91;99297.72;5054382;28;20037;-69
2022/08/27 05:03:55;;;;;;;13.32;7.47;;;;;;;22.76;64.52;99307.50;5054409;28;20037;-69
2022/08/27 05:06:21;;;;;;;14.38;7.18;;;;;;;22.78;64.32;99311.59;5054042;28;20044;-69
2022/08/27 05:08:49;;;;;;;20.33;6.90;;;;;;;22.63;64.59;99309.53;5051777;28;20269;-69
2022/08/27 05:11:15;;;;;;;19.60;6.43;;;;;;;22.68;63.95;99314.16;5053730;28;20075;-69
2022/08/27 05:13:42;;;;;;;18.80;6.43;;;;;;;22.63;64.33;99312.22;5052395;28;20262;-70
2022/08/27 05:16:10;;;;;;;14.40;6.38;;;;;;;22.64;63.97;99315.75;5052298;28;20041;-69
2022/08/27 05:18:37;;;;;;;19.20;6.38;;;;;;;22.89;63.24;99315.28;5054371;28;20029;-69
2022/08/27 05:21:04;;;;;;;17.75;5.80;;;;;;;22.77;63.81;99314.53;5057735;28;20047;-69
2022/08/27 05:23:31;;;;;;;15.23;5.40;;;;;;;22.93;63.56;99328.03;5060791;28;20108;-69
2022/08/27 05:25:57;;;;;;;20.67;5.47;;;;;;;23.09;63.04;99318.22;5061035;28;20029;-69
2022/08/27 05:28:25;;;;;;;16.75;5.85;;;;;;;23.22;62.85;99322.41;5050488;28;20048;-70
2022/08/27 05:30:53;;;;;;;18.95;6.25;;;;;;;23.34;62.22;99331.16;5054589;28;20056;-69
2022/08/27 05:33:23;;;;;;;19.90;5.97;;;;;;;23.26;62.97;99331.63;5051424;28;20973;-69
2022/08/27 05:35:53;;;;;;;15.52;6.35;;;;;;;23.32;62.43;99313.56;5053582;28;20056;-69
2022/08/27 05:38:19;;;;;;;16.05;6.45;;;;;;;23.36;62.86;99323.63;5049642;28;20437;-69
2022/08/27 05:40:46;;;;;;;13.40;6.10;;;;;;;23.39;62.83;99330.41;5053577;28;20032;-69
2022/08/27 05:43:13;;;;;;;14.93;5.72;;;;;;;23.22;63.40;99335.91;5049795;28;20126;-70
2022/08/27 05:45:41;;;;;;;13.10;5.10;;;;;;;23.22;63.79;99335.91;5053459;28;20044;-70
2022/08/27 05:48:09;;;;;;;16.25;5.72;;;;;;;23.39;63.16;99339.31;5037795;28;20184;-70
2022/08/27 05:50:34;;;;;;;14.73;6.63;;;;;;;23.38;63.65;99331.47;5050564;28;20320;-70
2022/08/27 05:53:01;;;;;;;22.73;6.85;;;;;;;23.33;63.91;99334.13;5053009;28;20048;-69
2022/08/27 05:55:26;;;;;;;19.67;10.65;;;;;;;23.63;62.81;99331.72;5036789;28;20022;-69
2022/08/27 05:57:52;;;;;;;16.88;9.75;;;;;;;23.66;62.50;99325.00;5052802;28;20044;-69
2022/08/27 06:03:01;;;;;;;29.05;8.98;;;;;;;23.97;61.79;99331.47;5052475;28;20033;-69
2022/08/27 06:05:27;;;;;;;19.27;7.00;;;;;;;24.07;61.15;99326.16;5051015;28;20250;-69
2022/08/27 06:07:52;;;;;;;32.78;14.70;;;;;;;24.31;60.33;99332.81;5053547;28;20344;-70
2022/08/27 06:10:18;;;;;;;32.45;15.82;;;;;;;24.27;59.59;99339.03;5034917;28;20314;-70
2022/08/27 06:12:44;;;;;;;20.90;8.57;;;;;;;24.55;59.84;99337.81;5049896;28;20036;-69
2022/08/27 06:15:10;;;;;;;23.73;8.13;;;;;;;25.12;57.80;99335.13;5051869;28;20036;-69
2022/08/27 06:17:35;;;;;;;16.63;5.78;;;;;;;25.54;55.21;99337.63;5050881;28;20044;-70
2022/08/27 06:20:01;;;;;;;19.48;7.75;;;;;;;25.73;54.30;99338.75;5052804;28;20021;-69
2022/08/27 06:22:26;;;;;;;24.42;6.72;;;;;;;26.03;53.52;99340.69;5038886;28;20037;-69
2022/08/27 06:24:52;;;;;;;23.52;7.07;;;;;;;26.31;52.63;99328.41;5245310;23;20399;-68
2022/08/27 06:27:19;;;;;;;20.90;9.02;;;;;;;26.40;51.95;99332.22;5063659;28;20036;-68
2022/08/27 06:29:45;;;;;;;20.30;7.50;;;;;;;26.67;50.70;99318.28;5064125;28;20104;-68
2022/08/27 06:32:13;;;;;;;14.35;4.97;;;;;;;26.19;50.75;99248.41;5061605;28;20039;-68
2022/08/27 06:34:39;;;;;;;15.23;6.07;;;;;;;27.04;49.43;99317.06;5059429;28;20040;-68
2022/08/27 06:37:05;;;;;;;23.88;5.18;;;;;;;27.15;48.38;99315.94;5059840;28;20049;-68
2022/08/27 06:39:31;;;;;;;15.20;5.68;;;;;;;27.29;48.66;99327.00;5059191;28;20037;-69
2022/08/27 06:41:57;;;;;;;11.02;5.03;;;;;;;27.01;48.35;99321.16;5057998;28;20024;-68
2022/08/27 06:44:23;;;;;;;15.50;6.00;;;;;;;27.13;49.06;99303.72;5060037;28;20025;-68
2022/08/27 06:46:50;;;;;;;17.42;6.50;;;;;;;27.57;46.78;99331.69;5053914;28;20265;-68
2022/08/27 06:49:16;;;;;;;16.02;5.43;;;;;;;27.81;45.27;99329.06;5059653;28;20029;-69
2022/08/27 06:51:46;;;;;;;21.85;6.00;;;;;;;27.98;44.52;99334.09;5059331;28;20036;-68
2022/08/27 06:54:13;;;;;;;23.13;5.30;;;;;;;28.25;44.01;99330.91;5058009;28;20306;-69
2022/08/27 06:56:41;;;;;;;21.65;5.53;;;;;;;28.35;42.39;99324.53;5059767;28;20032;-68
2022/08/27 06:59:10;;;;;;;16.95;4.53;;;;;;;28.75;41.38;99331.41;5057986;28;20028;-68
2022/08/27 07:01:38;;;;;;;20.60;4.60;;;;;;;29.18;40.22;99327.63;5058586;28;20029;-68
2022/08/27 07:04:07;;;;;;;17.92;4.75;;;;;;;29.40;39.33;99328.94;5059901;28;20231;-68
2022/08/27 07:06:34;;;;;;;22.05;4.90;;;;;;;29.52;38.30;99321.16;5058628;28;20043;-69
2022/08/27 07:09:00;;;;;;;17.58;5.05;;;;;;;29.79;38.98;99325.91;5058800;28;20029;-68
2022/08/27 07:11:27;;;;;;;17.88;5.60;;;;;;;29.92;38.07;99318.84;5060011;28;20326;-69
2022/08/27 07:13:54;;;;;;;24.20;4.95;;;;;;;29.91;37.78;99319.97;5059439;28;20036;-68
2022/08/27 07:16:22;;;;;;;22.50;5.25;;;;;;;29.96;37.18;99325.34;5058575;28;20029;-69
2022/08/27 07:18:49;;;;;;;19.13;5.10;;;;;;;30.26;36.89;99326.78;5058915;28;20040;-69
2022/08/27 07:21:15;;;;;;;20.52;5.38;;;;;;;30.34;36.57;99326.06;5059071;28;20020;-69
2022/08/27 07:23:41;;;;;;;16.73;4.90;;;;;;;30.56;36.61;99333.56;5058552;28;20255;-69
2022/08/27 07:26:08;;;;;;;13.13;5.78;;;;;;;30.70;35.62;99335.22;5068556;28;20036;-68
2022/08/27 07:28:35;;;;;;;21.65;4.93;;;;;;;31.01;35.33;99332.63;5079268;28;20109;-68
2022/08/27 07:31:00;;;;;;;27.88;4.93;;;;;;;31.53;33.87;99335.88;5077981;28;20036;-69
2022/08/27 07:33:26;;;;;;;17.40;5.00;;;;;;;31.57;33.50;99327.88;5078220;28;20344;-69
2022/08/27 07:35:51;;;;;;;21.48;5.28;;;;;;;31.41;33.79;99330.16;5079140;28;20033;-69
2022/08/27 07:38:17;;;;;;;11.45;4.10;;;;;;;31.75;33.81;99327.72;5078203;28;20248;-69
2022/08/27 07:40:42;;;;;;;15.27;4.68;;;;;;;32.09;33.11;99331.78;5078367;28;20264;-68
2022/08/27 07:45:55;;;;;;;18.33;4.97;;;;;;;32.51;32.40;99326.88;5078708;28;20039;-69
2022/08/27 07:48:24;;;;;;;19.33;5.10;;;;;;;32.58;31.39;99329.94;5077740;28;20029;-69
2022/08/27 07:50:51;;;;;;;20.20;5.45;;;;;;;32.69;31.43;99328.53;5077867;28;20039;-68
2022/08/27 07:53:17;;;;;;;21.27;4.90;;;;;;;33.03;31.23;99327.03;5078508;28;20062;-69
2022/08/27 07:55:44;;;;;;;24.13;5.10;;;;;;;33.27;30.68;99324.63;5077214;28;20028;-69
2022/08/27 07:58:10;;;;;;;19.75;5.20;;;;;;;33.35;30.65;99323.06;5077823;28;20059;-69
2022/08/27 08:00:35;;;;;;;22.38;4.65;;;;;;;33.50;28.16;99315.16;5078341;28;20341;-69
2022/08/27 08:03:01;;;;;;;20.77;5.25;;;;;;;33.50;29.77;99315.16;5077399;28;20087;-69
2022/08/27 08:05:27;;;;;;;14.82;4.32;;;;;;;33.34;30.43;99316.78;5076686;28;20036;-69
2022/08/27 08:07:53;;;;;;;21.75;5.45;;;;;;;33.66;29.51;99312.72;5078093;28;20113;-69
2022/08/27 08:10:21;;;;;;;18.90;4.65;;;;;;;33.72;30.32;99311.41;5077205;28;20032;-69
2022/08/27 08:12:47;;;;;;;13.90;5.22;;;;;;;33.54;29.52;99321.59;5078556;28;20321;-68
2022/08/27 08:15:14;;;;;;;17.73;4.60;;;;;;;33.43;29.45;99316.78;5077152;28;20378;-69
2022/08/27 08:17:39;;;;;;;18.88;4.68;;;;;;;33.47;29.38;99320.47;5077578;28;20028;-69
2022/08/27 08:20:07;;;;;;;21.83;5.20;;;;;;;33.49;29.36;99316.28;5078092;28;20043;-69
2022/08/27 08:22:32;;;;;;;17.17;4.50;;;;;;;33.43;29.18;99311.28;5077267;28;20083;-69
2022/08/27 08:24:58;;;;;;;18.77;5.10;;;;;;;33.33;29.05;99303.38;5058363;28;20024;-69
2022/08/27 08:27:24;;;;;;;17.45;4.68;;;;;;;33.55;28.96;99301.25;5078285;28;20056;-69
2022/08/27 08:29:49;;;;;;;10.25;4.10;;;;;;;33.13;28.97;99307.50;5077029;28;20029;-69
2022/08/27 08:32:16;;;;;;;9.20;4.25;;;;;;;32.76;29.48;99312.44;5077081;28;20035;-69
2022/08/27 08:34:41;;;;;;;20.38;5.18;;;;;;;32.95;29.66;99314.91;5077623;28;20056;-68
2022/08/27 08:37:07;;;;;;;15.50;4.20;;;;;;;33.13;29.16;99313.81;5077647;28;20040;-69
2022/08/27 08:39:35;;;;;;;17.33;4.22;;;;;;;33.58;28.87;99313.53;5076779;28;20061;-69
2022/08/27 08:42:03;;;;;;;14.20;3.90;;;;;;;33.51;29.03;99307.72;5077210;28;20036;-69
2022/08/27 08:44:35;;;;;;;13.85;4.15;;;;;;;33.55;29.42;99311.44;5077089;28;20249;-68
2022/08/27 08:47:10;;;;;;;15.95;4.72;;;;;;;33.34;28.20;99286.59;5076994;28;20025;-69
2022/08/27 08:49:58;;;;;;;23.63;4.55;;;;;;;33.66;28.40;99301.72;5076080;28;20044;-69
2022/08/27 08:52:38;;;;;;;30.52;5.30;;;;;;;33.85;28.67;99309.63;5077784;28;20373;-68
2022/08/27 08:55:13;;;;;;;11.52;4.50;;;;;;;33.60;28.92;99305.78;5076835;28;20524;-69
2022/08/27 08:58:21;;;;;;;25.23;4.82;;;;;;;33.84;28.27;99299.78;5076614;28;20032;-68
2022/08/27 09:00:53;;;;;;;17.95;4.28;;;;;;;33.86;28.61;99306.56;5075230;28;20295;-69
2022/08/27 09:03:19;;;;;;;12.68;4.20;;;;;;;33.86;28.94;99303.00;5077490;28;20364;-68
2022/08/27 09:05:53;;;;;;;19.05;3.70;;;;;;;33.89;28.37;99299.63;5076589;28;20016;-69
2022/08/27 09:08:40;;;;;;;13.50;3.75;;;;;;;34.13;28.13;99296.31;5079806;28;20020;-68
2022/08/27 09:11:15;;;;;;;13.85;4.00;;;;;;;34.17;27.96;99297.25;5062304;28;20107;-69
2022/08/27 09:13:56;;;;;;;18.92;4.20;;;;;;;33.82;27.95;99302.88;5080038;28;20036;-68
2022/08/27 09:16:22;;;;;;;19.58;4.45;;;;;;;33.30;28.60;99308.38;5080035;28;20035;-69
2022/08/27 09:18:48;;;;;;;11.25;3.83;;;;;;;33.53;26.98;99298.03;5080932;28;20341;-69
2022/08/27 09:21:41;;;;;;;14.98;4.30;;;;;;;33.82;27.99;99302.88;5080773;28;20036;-69
2022/08/27 09:24:35;;;;;;;19.58;4.70;;;;;;;33.90;27.91;99299.28;5080070;28;20032;-69
2022/08/27 09:27:01;;;;;;;9.23;3.80;;;;;;;33.69;27.70;99300.28;5079906;28;20039;-69
2022/08/27 09:29:29;;;;;;;13.13;4.28;;;;;;;33.52;28.25;99282.69;5080943;28;20205;-69
2022/08/27 09:31:57;;;;;;;17.85;4.00;;;;;;;33.68;27.91;99299.47;5081013;28;20034;-69
2022/08/27 09:34:25;;;;;;;16.63;3.63;;;;;;;33.89;27.89;99291.38;5080965;28;20042;-69
2022/08/27 09:36:52;;;;;;;15.15;3.83;;;;;;;33.88;26.33;99298.00;5080727;28;20051;-69
2022/08/27 09:39:18;;;;;;;16.75;3.92;;;;;;;33.76;26.89;99293.16;5080791;28;20064;-69
2022/08/27 09:41:48;;;;;;;18.42;3.92;;;;;;;33.57;28.01;99288.03;5080932;28;20219;-69
2022/08/27 09:44:18;;;;;;;12.52;3.85;;;;;;;33.63;27.68;99286.72;5080879;28;20033;-69
2022/08/27 09:46:52;;;;;;;19.27;3.95;;;;;;;33.46;28.18;99292.22;5061641;28;20099;-69
2022/08/27 09:49:18;;;;;;;22.40;4.38;;;;;;;33.43;27.21;99289.31;5080350;28;20032;-69
2022/08/27 09:51:46;;;;;;;23.90;4.18;;;;;;;33.59;27.80;99288.50;5080759;28;20091;-69
2022/08/27 09:54:28;;;;;;;13.55;3.95;;;;;;;33.65;26.56;99283.66;5080543;28;20326;-69
2022/08/27 09:56:54;;;;;;;14.80;3.90;;;;;;;33.47;26.35;99263.66;5083863;28;20246;-69
2022/08/27 09:59:40;;;;;;;11.77;3.95;;;;;;;33.35;27.90;99287.41;5066420;28;20040;-69
2022/08/27 10:02:16;;;;;;;20.75;4.35;;;;;;;33.15;27.87;99284.09;5066691;28;20020;-69
2022/08/27 10:04:45;;;;;;;18.52;4.35;;;;;;;33.15;28.19;99283.31;5084114;28;20032;-69
2022/08/27 10:07:52;;;;;;;19.05;4.40;;;;;;;33.08;28.66;99281.03;5084448;28;20028;-69
2022/08/27 10:10:34;;;;;;;14.15;4.57;;;;;;;32.94;28.06;99283.94;5084600;28;20043;-69
2022/08/27 10:13:15;;;;;;;21.35;4.32;;;;;;;32.97;27.11;99279.75;5080058;28;20113;-68
2022/08/27 10:16:20;;;;;;;11.20;3.90;;;;;;;32.85;28.44;99283.13;5079603;28;20245;-69
2022/08/27 10:19:16;;;;;;;14.20;3.80;;;;;;;33.04;25.87;99277.31;4995248;28;20126;-69
2022/08/27 10:21:51;;;;;;;20.90;4.00;;;;;;;32.92;26.19;99250.53;5077272;28;20245;-68
2022/08/27 10:24:34;;;;;;;19.08;3.67;;;;;;;33.19;28.01;99270.56;5077566;28;20032;-69
2022/08/27 10:27:23;;;;;;;20.52;4.07;;;;;;;33.36;26.40;99275.28;5080033;28;20036;-69
2022/08/27 10:30:07;;;;;;;14.50;4.28;;;;;;;33.16;27.78;99277.50;5081995;28;20047;-69
2022/08/27 10:32:47;;;;;;;12.55;3.72;;;;;;;33.10;27.88;99278.78;5083894;28;20264;-68
2022/08/27 10:35:25;;;;;;;16.13;4.22;;;;;;;33.08;29.03;99272.81;5083424;28;20036;-69
2022/08/27 10:38:13;;;;;;;13.35;3.88;;;;;;;33.12;27.42;99267.50;5065836;28;20234;-68
2022/08/27 10:41:26;;;;;;;17.88;4.15;;;;;;;33.12;28.30;99268.28;5082727;28;20326;-68
2022/08/27 10:44:28;;;;;;;10.90;4.15;;;;;;;33.37;28.84;99274.97;5039308;28;20055;-68
2022/08/27 10:47:05;;;;;;;17.98;4.28;;;;;;;33.30;27.63;99269.16;5083620;28;20217;-69
2022/08/27 10:49:56;;;;;;;13.55;4.20;;;;;;;33.44;27.25;99271.72;5082641;28;20044;-69
2022/08/27 10:52:40;;;;;;;22.80;4.90;;;;;;;33.20;27.84;99274.91;5083291;28;20032;-69
2022/08/27 10:55:14;;;;;;;17.98;3.75;;;;;;;33.23;27.23;99271.53;5083307;28;20341;-69
2022/08/27 10:58:05;;;;;;;29.33;4.40;;;;;;;33.19;25.83;99259.59;5083132;28;20341;-69
2022/08/27 11:00:54;;;;;;;21.98;4.85;;;;;;;33.20;26.57;99267.50;5082435;28;20295;-69
2022/08/27 11:03:44;;;;;;;17.90;3.53;;;;;;;33.11;26.82;99263.94;5054894;28;20103;-69
2022/08/27 11:06:23;;;;;;;16.75;4.25;;;;;;;33.00;25.86;99263.44;5082416;28;20032;-68
2022/08/27 11:08:56;;;;;;;17.77;4.18;;;;;;;32.75;26.19;99266.13;5083246;28;20073;-69
2022/08/27 11:11:33;;;;;;;22.53;4.03;;;;;;;32.79;26.98;99267.94;5083265;28;20029;-69
2022/08/27 11:14:00;;;;;;;14.13;3.97;;;;;;;32.55;26.61;99264.81;5082657;28;20024;-69
2022/08/27 11:16:40;;;;;;;18.48;3.85;;;;;;;32.69;25.84;99260.00;5083072;28;20033;-68
2022/08/27 11:19:15;;;;;;;13.15;3.33;;;;;;;32.78;25.25;99260.03;5065304;28;20044;-69
2022/08/27 11:22:13;;;;;;;20.50;3.97;;;;;;;32.78;26.09;99262.78;5062422;28;20257;-69
2022/08/27 11:24:45;;;;;;;19.33;4.32;;;;;;;32.80;25.60;99264.09;5076498;28;20037;-69
2022/08/27 11:27:11;;;;;;;21.48;3.97;;;;;;;32.79;26.93;99259.72;5078411;28;20036;-69
2022/08/27 11:29:51;;;;;;;21.15;4.53;;;;;;;32.76;26.01;99260.34;5078666;28;20067;-69
2022/08/27 11:32:42;;;;;;;20.73;3.95;;;;;;;32.84;27.15;99251.34;5079013;28;20207;-69
2022/08/27 11:35:36;;;;;;;15.40;3.63;;;;;;;32.77;25.73;99251.00;5059778;28;20024;-69
2022/08/27 11:38:26;;;;;;;23.55;4.18;;;;;;;32.86;27.63;99249.09;5036331;28;20053;-69
2022/08/27 11:41:32;;;;;;;16.45;3.88;;;;;;;32.77;27.13;99239.22;5078983;28;20099;-69
2022/08/27 11:43:59;;;;;;;21.83;4.13;;;;;;;32.69;25.55;99241.63;5082102;28;20032;-68
2022/08/27 11:46:27;;;;;;;22.85;4.03;;;;;;;32.89;25.87;99240.22;5082438;28;20112;-69